sensor_id;sensor_type;location;lat;lon;timestamp;P1;durP1;ratioP1;P2;durP2;ratioP2
19664;SDS011;9980;51.020;7.772;2023-04-28T00:01:11;7.17;;;5.37;;
19664;SDS011;9980;51.020;7.772;2023-04-28T00:03:37;6.50;;;5.57;;
19664;SDS011;9980;51.020;7.772;2023-04-28T00:06:04;9.40;;;6.23;;
19664;SDS011;9980;51.020;7.772;2023-04-28T00:08:30;5.13;;;4.63;;
19664;SDS011;9980;51.020;7.772;2023-04-28T00:10:57;7.20;;;5.73;;
19664;SDS011;9980;51.020;7.772;2023-04-28T00:13:23;4.63;;;4.23;;
19664;SDS011;9980;51.020;7.772;2023-04-28T00:15:50;7.10;;;4.87;;
19664;SDS011;9980;51.020;7.772;2023-04-28T00:18:20;7.57;;;4.97;;
19664;SDS011;9980;51.020;7.772;2023-04-28T00:20:47;5.90;;;5.27;;
19664;SDS011;9980;51.020;7.772;2023-04-28T00:23:14;6.80;;;5.23;;
19664;SDS011;9980;51.020;7.772;2023-04-28T00:25:40;5.47;;;4.83;;
19664;SDS011;9980;51.020;7.772;2023-04-28T00:28:06;9.93;;;5.00;;
19664;SDS011;9980;51.020;7.772;2023-04-28T00:30:33;10.27;;;5.57;;
19664;SDS011;9980;51.020;7.772;2023-04-28T00:32:59;7.37;;;5.97;;
19664;SDS011;9980;51.020;7.772;2023-04-28T00:35:25;6.20;;;4.20;;
19664;SDS011;9980;51.020;7.772;2023-04-28T00:37:51;5.53;;;4.80;;
19664;SDS011;9980;51.020;7.772;2023-04-28T00:40:17;8.50;;;4.93;;
19664;SDS011;9980;51.020;7.772;2023-04-28T00:42:44;6.13;;;4.60;;
19664;SDS011;9980;51.020;7.772;2023-04-28T00:45:10;5.67;;;5.03;;
19664;SDS011;9980;51.020;7.772;2023-04-28T00:47:36;4.63;;;4.20;;
19664;SDS011;9980;51.020;7.772;2023-04-28T00:50:03;7.73;;;5.43;;
19664;SDS011;9980;51.020;7.772;2023-04-28T00:52:31;8.73;;;5.60;;
19664;SDS011;9980;51.020;7.772;2023-04-28T00:54:57;8.00;;;5.10;;
19664;SDS011;9980;51.020;7.772;2023-04-28T00:57:24;9.47;;;5.00;;
19664;SDS011;9980;51.020;7.772;2023-04-28T00:59:50;6.23;;;4.83;;
19664;SDS011;9980;51.020;7.772;2023-04-28T01:02:18;5.87;;;5.27;;
19664;SDS011;9980;51.020;7.772;2023-04-28T01:04:45;7.07;;;4.73;;
19664;SDS011;9980;51.020;7.772;2023-04-28T01:07:13;6.17;;;5.03;;
19664;SDS011;9980;51.020;7.772;2023-04-28T01:09:40;7.03;;;6.03;;
19664;SDS011;9980;51.020;7.772;2023-04-28T01:12:07;6.13;;;5.47;;
19664;SDS011;9980;51.020;7.772;2023-04-28T01:14:41;5.27;;;4.83;;
19664;SDS011;9980;51.020;7.772;2023-04-28T01:17:08;5.67;;;5.13;;
19664;SDS011;9980;51.020;7.772;2023-04-28T01:19:36;9.23;;;6.23;;
19664;SDS011;9980;51.020;7.772;2023-04-28T01:22:02;9.77;;;5.83;;
19664;SDS011;9980;51.020;7.772;2023-04-28T01:24:29;8.70;;;5.40;;
19664;SDS011;9980;51.020;7.772;2023-04-28T01:27:00;12.07;;;6.10;;
19664;SDS011;9980;51.020;7.772;2023-04-28T01:29:27;8.07;;;5.17;;
19664;SDS011;9980;51.020;7.772;2023-04-28T01:31:53;8.33;;;6.30;;
19664;SDS011;9980;51.020;7.772;2023-04-28T01:34:20;7.93;;;5.60;;
19664;SDS011;9980;51.020;7.772;2023-04-28T01:36:46;7.60;;;5.93;;
19664;SDS011;9980;51.020;7.772;2023-04-28T01:39:12;6.33;;;5.23;;
19664;SDS011;9980;51.020;7.772;2023-04-28T01:41:40;8.37;;;6.40;;
19664;SDS011;9980;51.020;7.772;2023-04-28T01:44:07;9.77;;;6.00;;
19664;SDS011;9980;51.020;7.772;2023-04-28T01:46:33;6.70;;;6.00;;
19664;SDS011;9980;51.020;7.772;2023-04-28T01:49:01;7.07;;;6.20;;
19664;SDS011;9980;51.020;7.772;2023-04-28T01:51:27;6.97;;;5.60;;
19664;SDS011;9980;51.020;7.772;2023-04-28T01:53:54;8.57;;;5.57;;
19664;SDS011;9980;51.020;7.772;2023-04-28T01:56:20;7.17;;;5.77;;
19664;SDS011;9980;51.020;7.772;2023-04-28T01:58:48;6.60;;;5.93;;
19664;SDS011;9980;51.020;7.772;2023-04-28T02:01:14;5.93;;;5.33;;
19664;SDS011;9980;51.020;7.772;2023-04-28T02:03:42;8.43;;;6.00;;
19664;SDS011;9980;51.020;7.772;2023-04-28T02:06:08;6.30;;;5.67;;
19664;SDS011;9980;51.020;7.772;2023-04-28T02:08:35;7.60;;;6.10;;
19664;SDS011;9980;51.020;7.772;2023-04-28T02:11:01;7.70;;;6.10;;
19664;SDS011;9980;51.020;7.772;2023-04-28T02:13:28;6.27;;;5.63;;
19664;SDS011;9980;51.020;7.772;2023-04-28T02:15:54;9.30;;;5.30;;
19664;SDS011;9980;51.020;7.772;2023-04-28T02:18:21;6.73;;;5.47;;
19664;SDS011;9980;51.020;7.772;2023-04-28T02:20:47;8.57;;;6.17;;
19664;SDS011;9980;51.020;7.772;2023-04-28T02:23:13;5.83;;;5.23;;
19664;SDS011;9980;51.020;7.772;2023-04-28T02:25:39;5.97;;;5.37;;
19664;SDS011;9980;51.020;7.772;2023-04-28T02:28:06;6.83;;;5.77;;
19664;SDS011;9980;51.020;7.772;2023-04-28T02:30:33;5.13;;;4.70;;
19664;SDS011;9980;51.020;7.772;2023-04-28T02:32:59;6.67;;;5.60;;
19664;SDS011;9980;51.020;7.772;2023-04-28T02:35:26;9.87;;;5.93;;
19664;SDS011;9980;51.020;7.772;2023-04-28T02:37:53;10.53;;;6.47;;
19664;SDS011;9980;51.020;7.772;2023-04-28T02:40:20;7.33;;;6.23;;
19664;SDS011;9980;51.020;7.772;2023-04-28T02:42:46;8.63;;;6.50;;
19664;SDS011;9980;51.020;7.772;2023-04-28T02:45:12;8.80;;;6.20;;
19664;SDS011;9980;51.020;7.772;2023-04-28T02:47:39;6.57;;;5.33;;
19664;SDS011;9980;51.020;7.772;2023-04-28T02:50:05;7.33;;;6.40;;
19664;SDS011;9980;51.020;7.772;2023-04-28T02:52:33;8.13;;;6.43;;
19664;SDS011;9980;51.020;7.772;2023-04-28T02:54:59;6.40;;;5.80;;
19664;SDS011;9980;51.020;7.772;2023-04-28T02:57:25;8.33;;;6.23;;
19664;SDS011;9980;51.020;7.772;2023-04-28T02:59:52;5.70;;;5.20;;
19664;SDS011;9980;51.020;7.772;2023-04-28T03:02:18;8.10;;;6.27;;
19664;SDS011;9980;51.020;7.772;2023-04-28T03:04:47;8.30;;;6.20;;
19664;SDS011;9980;51.020;7.772;2023-04-28T03:07:13;11.23;;;6.50;;
19664;SDS011;9980;51.020;7.772;2023-04-28T03:09:41;9.53;;;6.47;;
19664;SDS011;9980;51.020;7.772;2023-04-28T03:12:07;9.17;;;6.30;;
19664;SDS011;9980;51.020;7.772;2023-04-28T03:14:33;6.03;;;5.53;;
19664;SDS011;9980;51.020;7.772;2023-04-28T03:17:00;8.60;;;6.10;;
19664;SDS011;9980;51.020;7.772;2023-04-28T03:19:26;8.93;;;6.20;;
19664;SDS011;9980;51.020;7.772;2023-04-28T03:21:52;7.93;;;6.00;;
19664;SDS011;9980;51.020;7.772;2023-04-28T03:24:19;6.67;;;5.87;;
19664;SDS011;9980;51.020;7.772;2023-04-28T03:26:47;6.53;;;5.80;;
19664;SDS011;9980;51.020;7.772;2023-04-28T03:29:14;6.20;;;5.60;;
19664;SDS011;9980;51.020;7.772;2023-04-28T03:31:42;12.13;;;7.57;;
19664;SDS011;9980;51.020;7.772;2023-04-28T03:34:08;27.43;;;15.93;;
19664;SDS011;9980;51.020;7.772;2023-04-28T03:36:35;79.53;;;41.30;;
19664;SDS011;9980;51.020;7.772;2023-04-28T03:39:07;132.60;;;70.43;;
19664;SDS011;9980;51.020;7.772;2023-04-28T03:41:34;144.73;;;81.90;;
19664;SDS011;9980;51.020;7.772;2023-04-28T03:44:20;105.17;;;59.07;;
19664;SDS011;9980;51.020;7.772;2023-04-28T03:46:48;90.87;;;52.77;;
19664;SDS011;9980;51.020;7.772;2023-04-28T03:49:14;42.67;;;26.43;;
19664;SDS011;9980;51.020;7.772;2023-04-28T03:51:41;24.83;;;15.50;;
19664;SDS011;9980;51.020;7.772;2023-04-28T03:54:07;17.90;;;10.50;;
19664;SDS011;9980;51.020;7.772;2023-04-28T03:56:34;15.10;;;9.90;;
19664;SDS011;9980;51.020;7.772;2023-04-28T03:59:02;9.63;;;8.67;;
19664;SDS011;9980;51.020;7.772;2023-04-28T04:01:28;8.10;;;7.30;;
19664;SDS011;9980;51.020;7.772;2023-04-28T04:03:55;9.07;;;7.30;;
19664;SDS011;9980;51.020;7.772;2023-04-28T04:06:22;7.03;;;6.10;;
19664;SDS011;9980;51.020;7.772;2023-04-28T04:08:48;12.03;;;7.67;;
19664;SDS011;9980;51.020;7.772;2023-04-28T04:11:15;9.83;;;7.77;;
19664;SDS011;9980;51.020;7.772;2023-04-28T04:13:41;11.07;;;7.67;;
19664;SDS011;9980;51.020;7.772;2023-04-28T04:16:12;8.67;;;7.80;;
19664;SDS011;9980;51.020;7.772;2023-04-28T04:18:40;10.33;;;8.30;;
19664;SDS011;9980;51.020;7.772;2023-04-28T04:21:18;8.23;;;7.43;;
19664;SDS011;9980;51.020;7.772;2023-04-28T04:23:46;9.07;;;7.97;;
19664;SDS011;9980;51.020;7.772;2023-04-28T04:26:12;12.23;;;8.90;;
19664;SDS011;9980;51.020;7.772;2023-04-28T04:28:38;9.23;;;8.10;;
19664;SDS011;9980;51.020;7.772;2023-04-28T04:31:06;10.77;;;7.77;;
19664;SDS011;9980;51.020;7.772;2023-04-28T04:33:34;7.33;;;6.63;;
19664;SDS011;9980;51.020;7.772;2023-04-28T04:36:03;9.13;;;8.23;;
19664;SDS011;9980;51.020;7.772;2023-04-28T04:38:30;8.83;;;7.30;;
19664;SDS011;9980;51.020;7.772;2023-04-28T04:41:01;8.90;;;7.03;;
19664;SDS011;9980;51.020;7.772;2023-04-28T04:43:27;8.63;;;7.80;;
19664;SDS011;9980;51.020;7.772;2023-04-28T04:45:54;9.47;;;8.00;;
19664;SDS011;9980;51.020;7.772;2023-04-28T04:48:21;10.93;;;7.50;;
19664;SDS011;9980;51.020;7.772;2023-04-28T04:50:47;8.50;;;7.57;;
19664;SDS011;9980;51.020;7.772;2023-04-28T04:53:13;9.00;;;8.07;;
19664;SDS011;9980;51.020;7.772;2023-04-28T04:55:42;10.60;;;8.03;;
19664;SDS011;9980;51.020;7.772;2023-04-28T04:58:09;11.33;;;7.80;;
19664;SDS011;9980;51.020;7.772;2023-04-28T05:00:54;9.70;;;7.73;;
19664;SDS011;9980;51.020;7.772;2023-04-28T05:03:21;7.93;;;7.23;;
19664;SDS011;9980;51.020;7.772;2023-04-28T05:05:47;9.30;;;8.27;;
19664;SDS011;9980;51.020;7.772;2023-04-28T05:08:26;9.27;;;7.50;;
19664;SDS011;9980;51.020;7.772;2023-04-28T05:10:53;11.33;;;8.60;;
19664;SDS011;9980;51.020;7.772;2023-04-28T05:13:19;9.07;;;8.17;;
19664;SDS011;9980;51.020;7.772;2023-04-28T05:15:49;8.63;;;7.83;;
19664;SDS011;9980;51.020;7.772;2023-04-28T05:18:27;10.87;;;8.00;;
19664;SDS011;9980;51.020;7.772;2023-04-28T05:20:54;8.10;;;7.27;;
19664;SDS011;9980;51.020;7.772;2023-04-28T05:23:21;9.73;;;8.13;;
19664;SDS011;9980;51.020;7.772;2023-04-28T05:25:47;11.80;;;9.10;;
19664;SDS011;9980;51.020;7.772;2023-04-28T05:28:14;13.63;;;8.43;;
19664;SDS011;9980;51.020;7.772;2023-04-28T05:30:42;9.07;;;7.93;;
19664;SDS011;9980;51.020;7.772;2023-04-28T05:33:10;8.07;;;7.30;;
19664;SDS011;9980;51.020;7.772;2023-04-28T05:35:37;9.43;;;8.47;;
19664;SDS011;9980;51.020;7.772;2023-04-28T05:38:03;12.00;;;8.63;;
19664;SDS011;9980;51.020;7.772;2023-04-28T05:40:31;8.90;;;8.07;;
19664;SDS011;9980;51.020;7.772;2023-04-28T05:43:00;9.00;;;8.10;;
19664;SDS011;9980;51.020;7.772;2023-04-28T05:45:26;10.43;;;8.27;;
19664;SDS011;9980;51.020;7.772;2023-04-28T05:47:53;10.07;;;7.83;;
19664;SDS011;9980;51.020;7.772;2023-04-28T05:50:20;8.13;;;7.30;;
19664;SDS011;9980;51.020;7.772;2023-04-28T05:52:48;11.67;;;8.63;;
19664;SDS011;9980;51.020;7.772;2023-04-28T05:55:14;11.23;;;8.13;;
19664;SDS011;9980;51.020;7.772;2023-04-28T05:57:41;10.13;;;9.10;;
19664;SDS011;9980;51.020;7.772;2023-04-28T06:00:18;9.57;;;8.53;;
19664;SDS011;9980;51.020;7.772;2023-04-28T06:02:46;9.33;;;8.43;;
19664;SDS011;9980;51.020;7.772;2023-04-28T06:05:13;10.03;;;9.00;;
19664;SDS011;9980;51.020;7.772;2023-04-28T06:07:39;14.03;;;9.57;;
19664;SDS011;9980;51.020;7.772;2023-04-28T06:10:07;10.17;;;8.90;;
19664;SDS011;9980;51.020;7.772;2023-04-28T06:12:34;11.90;;;9.00;;
19664;SDS011;9980;51.020;7.772;2023-04-28T06:15:02;11.03;;;7.97;;
19664;SDS011;9980;51.020;7.772;2023-04-28T06:17:29;10.37;;;9.20;;
19664;SDS011;9980;51.020;7.772;2023-04-28T06:19:57;13.97;;;9.30;;
19664;SDS011;9980;51.020;7.772;2023-04-28T06:22:26;14.93;;;9.60;;
19664;SDS011;9980;51.020;7.772;2023-04-28T06:24:53;13.20;;;9.33;;
19664;SDS011;9980;51.020;7.772;2023-04-28T06:27:27;12.60;;;8.83;;
19664;SDS011;9980;51.020;7.772;2023-04-28T06:29:57;15.57;;;9.27;;
19664;SDS011;9980;51.020;7.772;2023-04-28T06:32:24;12.43;;;9.17;;
19664;SDS011;9980;51.020;7.772;2023-04-28T06:34:51;11.10;;;8.63;;
19664;SDS011;9980;51.020;7.772;2023-04-28T06:37:17;10.93;;;9.43;;
19664;SDS011;9980;51.020;7.772;2023-04-28T06:39:43;11.33;;;9.07;;
19664;SDS011;9980;51.020;7.772;2023-04-28T06:42:10;11.00;;;8.07;;
19664;SDS011;9980;51.020;7.772;2023-04-28T06:44:40;9.03;;;8.13;;
19664;SDS011;9980;51.020;7.772;2023-04-28T06:47:08;9.70;;;8.70;;
19664;SDS011;9980;51.020;7.772;2023-04-28T06:49:37;9.07;;;8.13;;
19664;SDS011;9980;51.020;7.772;2023-04-28T06:52:03;9.47;;;7.97;;
19664;SDS011;9980;51.020;7.772;2023-04-28T06:54:29;14.30;;;8.70;;
19664;SDS011;9980;51.020;7.772;2023-04-28T06:56:56;9.67;;;8.60;;
19664;SDS011;9980;51.020;7.772;2023-04-28T06:59:23;9.47;;;8.57;;
19664;SDS011;9980;51.020;7.772;2023-04-28T07:01:49;9.83;;;7.80;;
19664;SDS011;9980;51.020;7.772;2023-04-28T07:04:16;11.10;;;8.30;;
19664;SDS011;9980;51.020;7.772;2023-04-28T07:06:43;10.40;;;8.70;;
19664;SDS011;9980;51.020;7.772;2023-04-28T07:09:09;11.17;;;8.93;;
19664;SDS011;9980;51.020;7.772;2023-04-28T07:11:35;9.60;;;8.53;;
19664;SDS011;9980;51.020;7.772;2023-04-28T07:14:01;10.23;;;8.27;;
19664;SDS011;9980;51.020;7.772;2023-04-28T07:16:27;8.83;;;7.93;;
19664;SDS011;9980;51.020;7.772;2023-04-28T07:18:54;9.10;;;8.20;;
19664;SDS011;9980;51.020;7.772;2023-04-28T07:21:21;11.03;;;9.03;;
19664;SDS011;9980;51.020;7.772;2023-04-28T07:23:47;10.70;;;8.30;;
19664;SDS011;9980;51.020;7.772;2023-04-28T07:26:13;10.17;;;8.40;;
19664;SDS011;9980;51.020;7.772;2023-04-28T07:28:41;13.50;;;9.27;;
19664;SDS011;9980;51.020;7.772;2023-04-28T07:31:08;10.20;;;8.33;;
19664;SDS011;9980;51.020;7.772;2023-04-28T07:33:35;10.43;;;8.67;;
19664;SDS011;9980;51.020;7.772;2023-04-28T07:36:01;9.57;;;7.43;;
19664;SDS011;9980;51.020;7.772;2023-04-28T07:38:28;8.50;;;7.70;;
19664;SDS011;9980;51.020;7.772;2023-04-28T07:40:55;14.00;;;9.27;;
19664;SDS011;9980;51.020;7.772;2023-04-28T07:43:21;8.87;;;7.97;;
19664;SDS011;9980;51.020;7.772;2023-04-28T07:45:47;9.20;;;8.30;;
19664;SDS011;9980;51.020;7.772;2023-04-28T07:48:14;11.17;;;8.97;;
19664;SDS011;9980;51.020;7.772;2023-04-28T07:50:40;9.07;;;8.17;;
19664;SDS011;9980;51.020;7.772;2023-04-28T07:53:07;9.50;;;8.60;;
19664;SDS011;9980;51.020;7.772;2023-04-28T07:55:33;9.37;;;8.13;;
19664;SDS011;9980;51.020;7.772;2023-04-28T07:58:00;10.07;;;9.03;;
19664;SDS011;9980;51.020;7.772;2023-04-28T08:00:26;12.20;;;9.27;;
19664;SDS011;9980;51.020;7.772;2023-04-28T08:02:53;9.67;;;8.53;;
19664;SDS011;9980;51.020;7.772;2023-04-28T08:05:19;9.10;;;8.20;;
19664;SDS011;9980;51.020;7.772;2023-04-28T08:07:46;9.27;;;7.93;;
19664;SDS011;9980;51.020;7.772;2023-04-28T08:10:13;11.10;;;8.73;;
19664;SDS011;9980;51.020;7.772;2023-04-28T08:12:39;11.40;;;8.50;;
19664;SDS011;9980;51.020;7.772;2023-04-28T08:15:07;8.93;;;8.13;;
19664;SDS011;9980;51.020;7.772;2023-04-28T08:17:34;9.87;;;9.00;;
19664;SDS011;9980;51.020;7.772;2023-04-28T08:20:00;8.30;;;7.50;;
19664;SDS011;9980;51.020;7.772;2023-04-28T08:22:27;10.93;;;8.60;;
19664;SDS011;9980;51.020;7.772;2023-04-28T08:24:53;11.13;;;8.57;;
19664;SDS011;9980;51.020;7.772;2023-04-28T08:27:20;11.10;;;8.93;;
19664;SDS011;9980;51.020;7.772;2023-04-28T08:29:47;11.40;;;8.80;;
19664;SDS011;9980;51.020;7.772;2023-04-28T08:32:14;10.80;;;8.53;;
19664;SDS011;9980;51.020;7.772;2023-04-28T08:34:40;13.20;;;9.67;;
19664;SDS011;9980;51.020;7.772;2023-04-28T08:37:07;13.40;;;9.13;;
19664;SDS011;9980;51.020;7.772;2023-04-28T08:39:33;9.83;;;8.83;;
19664;SDS011;9980;51.020;7.772;2023-04-28T08:42:03;10.13;;;8.43;;
19664;SDS011;9980;51.020;7.772;2023-04-28T08:44:35;11.00;;;9.30;;
19664;SDS011;9980;51.020;7.772;2023-04-28T08:47:13;11.20;;;9.67;;
19664;SDS011;9980;51.020;7.772;2023-04-28T08:49:40;10.27;;;9.30;;
19664;SDS011;9980;51.020;7.772;2023-04-28T08:52:08;10.90;;;8.73;;
19664;SDS011;9980;51.020;7.772;2023-04-28T08:54:37;10.60;;;9.50;;
19664;SDS011;9980;51.020;7.772;2023-04-28T08:57:08;11.07;;;9.47;;
19664;SDS011;9980;51.020;7.772;2023-04-28T08:59:38;10.93;;;9.83;;
19664;SDS011;9980;51.020;7.772;2023-04-28T09:02:06;10.17;;;9.10;;
19664;SDS011;9980;51.020;7.772;2023-04-28T09:04:33;11.50;;;9.20;;
19664;SDS011;9980;51.020;7.772;2023-04-28T09:07:00;13.33;;;9.33;;
19664;SDS011;9980;51.020;7.772;2023-04-28T09:09:27;10.63;;;9.53;;
19664;SDS011;9980;51.020;7.772;2023-04-28T09:12:00;12.10;;;9.50;;
19664;SDS011;9980;51.020;7.772;2023-04-28T09:14:29;10.27;;;9.27;;
19664;SDS011;9980;51.020;7.772;2023-04-28T09:16:57;14.30;;;9.27;;
19664;SDS011;9980;51.020;7.772;2023-04-28T09:19:24;11.87;;;9.57;;
19664;SDS011;9980;51.020;7.772;2023-04-28T09:21:59;9.50;;;8.30;;
19664;SDS011;9980;51.020;7.772;2023-04-28T09:24:33;10.50;;;7.80;;
19664;SDS011;9980;51.020;7.772;2023-04-28T09:27:05;9.77;;;8.87;;
19664;SDS011;9980;51.020;7.772;2023-04-28T09:29:36;9.23;;;7.93;;
19664;SDS011;9980;51.020;7.772;2023-04-28T09:32:13;10.53;;;9.33;;
19664;SDS011;9980;51.020;7.772;2023-04-28T09:34:45;11.33;;;8.57;;
19664;SDS011;9980;51.020;7.772;2023-04-28T09:37:18;9.83;;;8.83;;
19664;SDS011;9980;51.020;7.772;2023-04-28T09:39:47;9.23;;;8.43;;
19664;SDS011;9980;51.020;7.772;2023-04-28T09:42:31;9.47;;;8.57;;
19664;SDS011;9980;51.020;7.772;2023-04-28T09:47:38;8.80;;;7.93;;
19664;SDS011;9980;51.020;7.772;2023-04-28T09:50:11;9.03;;;8.13;;
19664;SDS011;9980;51.020;7.772;2023-04-28T09:52:42;8.67;;;7.87;;
19664;SDS011;9980;51.020;7.772;2023-04-28T09:55:11;7.40;;;6.80;;
19664;SDS011;9980;51.020;7.772;2023-04-28T09:57:38;7.90;;;6.80;;
19664;SDS011;9980;51.020;7.772;2023-04-28T10:00:06;7.80;;;7.10;;
19664;SDS011;9980;51.020;7.772;2023-04-28T10:02:34;9.10;;;7.43;;
19664;SDS011;9980;51.020;7.772;2023-04-28T10:05:05;9.23;;;8.33;;
19664;SDS011;9980;51.020;7.772;2023-04-28T10:07:34;8.00;;;7.30;;
19664;SDS011;9980;51.020;7.772;2023-04-28T10:10:01;9.67;;;8.77;;
19664;SDS011;9980;51.020;7.772;2023-04-28T10:12:28;8.17;;;7.37;;
19664;SDS011;9980;51.020;7.772;2023-04-28T10:14:55;7.57;;;6.87;;
19664;SDS011;9980;51.020;7.772;2023-04-28T10:17:24;7.70;;;6.93;;
19664;SDS011;9980;51.020;7.772;2023-04-28T10:19:51;8.43;;;7.67;;
19664;SDS011;9980;51.020;7.772;2023-04-28T10:22:42;10.57;;;8.00;;
19664;SDS011;9980;51.020;7.772;2023-04-28T10:25:30;8.43;;;7.53;;
19664;SDS011;9980;51.020;7.772;2023-04-28T10:28:03;9.20;;;8.13;;
19664;SDS011;9980;51.020;7.772;2023-04-28T10:30:33;9.23;;;8.40;;
19664;SDS011;9980;51.020;7.772;2023-04-28T10:35:40;8.73;;;7.93;;
19664;SDS011;9980;51.020;7.772;2023-04-28T10:40:51;10.33;;;9.30;;
19664;SDS011;9980;51.020;7.772;2023-04-28T10:43:31;10.03;;;9.03;;
19664;SDS011;9980;51.020;7.772;2023-04-28T10:46:05;12.50;;;9.40;;
19664;SDS011;9980;51.020;7.772;2023-04-28T10:56:12;9.43;;;8.53;;
19664;SDS011;9980;51.020;7.772;2023-04-28T10:58:46;10.97;;;8.47;;
19664;SDS011;9980;51.020;7.772;2023-04-28T11:03:54;10.43;;;8.63;;
19664;SDS011;9980;51.020;7.772;2023-04-28T11:06:42;9.57;;;7.70;;
19664;SDS011;9980;51.020;7.772;2023-04-28T11:19:26;5.80;;;5.40;;
19664;SDS011;9980;51.020;7.772;2023-04-28T11:21:56;5.80;;;5.30;;
19664;SDS011;9980;51.020;7.772;2023-04-28T11:24:28;6.07;;;5.57;;
19664;SDS011;9980;51.020;7.772;2023-04-28T11:26:56;6.10;;;5.50;;
19664;SDS011;9980;51.020;7.772;2023-04-28T11:29:36;6.63;;;6.03;;
19664;SDS011;9980;51.020;7.772;2023-04-28T11:32:06;5.20;;;4.80;;
19664;SDS011;9980;51.020;7.772;2023-04-28T11:34:34;5.67;;;5.20;;
19664;SDS011;9980;51.020;7.772;2023-04-28T11:37:02;6.40;;;5.80;;
19664;SDS011;9980;51.020;7.772;2023-04-28T11:39:31;5.50;;;5.10;;
19664;SDS011;9980;51.020;7.772;2023-04-28T11:42:00;8.70;;;5.43;;
19664;SDS011;9980;51.020;7.772;2023-04-28T11:44:33;5.47;;;5.07;;
19664;SDS011;9980;51.020;7.772;2023-04-28T11:47:01;6.03;;;5.53;;
19664;SDS011;9980;51.020;7.772;2023-04-28T11:49:30;5.77;;;5.37;;
19664;SDS011;9980;51.020;7.772;2023-04-28T11:52:08;6.33;;;5.27;;
19664;SDS011;9980;51.020;7.772;2023-04-28T11:54:35;5.10;;;4.67;;
19664;SDS011;9980;51.020;7.772;2023-04-28T11:57:03;4.53;;;4.13;;
19664;SDS011;9980;51.020;7.772;2023-04-28T11:59:31;4.27;;;3.97;;
19664;SDS011;9980;51.020;7.772;2023-04-28T12:02:01;4.60;;;4.20;;
19664;SDS011;9980;51.020;7.772;2023-04-28T12:04:39;5.20;;;4.70;;
19664;SDS011;9980;51.020;7.772;2023-04-28T12:07:13;5.00;;;4.60;;
19664;SDS011;9980;51.020;7.772;2023-04-28T12:09:44;5.00;;;4.60;;
19664;SDS011;9980;51.020;7.772;2023-04-28T12:12:31;5.03;;;4.63;;
19664;SDS011;9980;51.020;7.772;2023-04-28T12:15:02;5.90;;;5.40;;
19664;SDS011;9980;51.020;7.772;2023-04-28T12:17:32;5.03;;;4.67;;
19664;SDS011;9980;51.020;7.772;2023-04-28T12:20:04;5.70;;;5.23;;
19664;SDS011;9980;51.020;7.772;2023-04-28T12:22:43;5.67;;;5.17;;
19664;SDS011;9980;51.020;7.772;2023-04-28T12:25:16;5.90;;;5.47;;
19664;SDS011;9980;51.020;7.772;2023-04-28T12:27:59;6.60;;;6.00;;
19664;SDS011;9980;51.020;7.772;2023-04-28T12:30:33;6.63;;;6.03;;
19664;SDS011;9980;51.020;7.772;2023-04-28T12:33:03;5.97;;;5.47;;
19664;SDS011;9980;51.020;7.772;2023-04-28T12:35:29;7.57;;;6.77;;
19664;SDS011;9980;51.020;7.772;2023-04-28T12:37:57;7.50;;;6.13;;
19664;SDS011;9980;51.020;7.772;2023-04-28T12:40:24;6.67;;;6.17;;
19664;SDS011;9980;51.020;7.772;2023-04-28T12:42:50;6.47;;;5.97;;
19664;SDS011;9980;51.020;7.772;2023-04-28T12:45:17;6.37;;;5.77;;
19664;SDS011;9980;51.020;7.772;2023-04-28T12:47:43;6.57;;;5.93;;
19664;SDS011;9980;51.020;7.772;2023-04-28T12:50:10;6.47;;;5.97;;
19664;SDS011;9980;51.020;7.772;2023-04-28T12:52:36;6.53;;;5.97;;
19664;SDS011;9980;51.020;7.772;2023-04-28T12:55:03;6.50;;;5.90;;
19664;SDS011;9980;51.020;7.772;2023-04-28T12:57:30;7.20;;;6.50;;
19664;SDS011;9980;51.020;7.772;2023-04-28T12:59:57;8.90;;;8.00;;
19664;SDS011;9980;51.020;7.772;2023-04-28T13:02:23;9.27;;;8.47;;
19664;SDS011;9980;51.020;7.772;2023-04-28T13:04:49;9.30;;;8.40;;
19664;SDS011;9980;51.020;7.772;2023-04-28T13:07:20;8.97;;;8.17;;
19664;SDS011;9980;51.020;7.772;2023-04-28T13:09:47;10.07;;;8.60;;
19664;SDS011;9980;51.020;7.772;2023-04-28T13:12:13;11.27;;;9.83;;
19664;SDS011;9980;51.020;7.772;2023-04-28T13:14:40;9.73;;;8.80;;
19664;SDS011;9980;51.020;7.772;2023-04-28T13:17:07;10.33;;;9.30;;
19664;SDS011;9980;51.020;7.772;2023-04-28T13:19:34;10.30;;;9.40;;
19664;SDS011;9980;51.020;7.772;2023-04-28T13:22:01;10.67;;;9.63;;
19664;SDS011;9980;51.020;7.772;2023-04-28T13:24:29;11.03;;;9.93;;
19664;SDS011;9980;51.020;7.772;2023-04-28T13:26:57;11.93;;;10.73;;
19664;SDS011;9980;51.020;7.772;2023-04-28T13:29:24;12.63;;;11.33;;
19664;SDS011;9980;51.020;7.772;2023-04-28T13:31:50;12.77;;;11.47;;
19664;SDS011;9980;51.020;7.772;2023-04-28T13:34:16;13.13;;;11.83;;
19664;SDS011;9980;51.020;7.772;2023-04-28T13:36:43;11.60;;;10.50;;
19664;SDS011;9980;51.020;7.772;2023-04-28T13:39:10;14.87;;;11.83;;
19664;SDS011;9980;51.020;7.772;2023-04-28T13:41:38;12.23;;;10.93;;
19664;SDS011;9980;51.020;7.772;2023-04-28T13:44:05;12.43;;;11.13;;
19664;SDS011;9980;51.020;7.772;2023-04-28T13:46:31;12.77;;;11.47;;
19664;SDS011;9980;51.020;7.772;2023-04-28T13:48:58;11.67;;;10.47;;
19664;SDS011;9980;51.020;7.772;2023-04-28T13:51:24;11.83;;;10.70;;
19664;SDS011;9980;51.020;7.772;2023-04-28T13:53:51;11.30;;;9.77;;
19664;SDS011;9980;51.020;7.772;2023-04-28T13:56:17;10.20;;;9.30;;
19664;SDS011;9980;51.020;7.772;2023-04-28T13:58:44;10.80;;;9.80;;
19664;SDS011;9980;51.020;7.772;2023-04-28T14:01:10;10.40;;;9.47;;
19664;SDS011;9980;51.020;7.772;2023-04-28T14:03:37;10.20;;;9.30;;
19664;SDS011;9980;51.020;7.772;2023-04-28T14:06:05;10.03;;;9.10;;
19664;SDS011;9980;51.020;7.772;2023-04-28T14:08:32;9.27;;;8.03;;
19664;SDS011;9980;51.020;7.772;2023-04-28T14:10:58;9.57;;;8.67;;
19664;SDS011;9980;51.020;7.772;2023-04-28T14:13:25;8.40;;;7.60;;
19664;SDS011;9980;51.020;7.772;2023-04-28T14:15:51;8.60;;;7.80;;
19664;SDS011;9980;51.020;7.772;2023-04-28T14:18:25;8.43;;;7.73;;
19664;SDS011;9980;51.020;7.772;2023-04-28T14:20:52;8.00;;;7.30;;
19664;SDS011;9980;51.020;7.772;2023-04-28T14:23:20;10.17;;;8.30;;
19664;SDS011;9980;51.020;7.772;2023-04-28T14:25:47;9.13;;;8.33;;
19664;SDS011;9980;51.020;7.772;2023-04-28T14:28:14;9.10;;;8.20;;
19664;SDS011;9980;51.020;7.772;2023-04-28T14:30:41;8.73;;;7.93;;
19664;SDS011;9980;51.020;7.772;2023-04-28T14:33:07;10.47;;;8.90;;
19664;SDS011;9980;51.020;7.772;2023-04-28T14:35:33;11.00;;;8.70;;
19664;SDS011;9980;51.020;7.772;2023-04-28T14:38:00;9.53;;;8.63;;
19664;SDS011;9980;51.020;7.772;2023-04-28T14:40:28;9.90;;;8.90;;
19664;SDS011;9980;51.020;7.772;2023-04-28T14:42:54;9.90;;;8.30;;
19664;SDS011;9980;51.020;7.772;2023-04-28T14:45:20;9.60;;;8.67;;
19664;SDS011;9980;51.020;7.772;2023-04-28T14:47:47;11.67;;;7.97;;
19664;SDS011;9980;51.020;7.772;2023-04-28T14:50:14;9.33;;;8.33;;
19664;SDS011;9980;51.020;7.772;2023-04-28T14:52:40;8.93;;;7.77;;
19664;SDS011;9980;51.020;7.772;2023-04-28T14:55:07;8.83;;;8.03;;
19664;SDS011;9980;51.020;7.772;2023-04-28T14:57:33;8.50;;;7.80;;
19664;SDS011;9980;51.020;7.772;2023-04-28T15:00:00;12.10;;;8.20;;
19664;SDS011;9980;51.020;7.772;2023-04-28T15:02:28;8.33;;;7.63;;
19664;SDS011;9980;51.020;7.772;2023-04-28T15:04:55;7.07;;;6.37;;
19664;SDS011;9980;51.020;7.772;2023-04-28T15:07:22;6.73;;;6.13;;
19664;SDS011;9980;51.020;7.772;2023-04-28T15:09:53;7.30;;;6.00;;
19664;SDS011;9980;51.020;7.772;2023-04-28T15:12:19;6.60;;;5.83;;
19664;SDS011;9980;51.020;7.772;2023-04-28T15:14:45;6.57;;;6.07;;
19664;SDS011;9980;51.020;7.772;2023-04-28T15:17:14;6.37;;;5.80;;
19664;SDS011;9980;51.020;7.772;2023-04-28T15:19:41;6.70;;;6.10;;
19664;SDS011;9980;51.020;7.772;2023-04-28T15:22:08;6.27;;;5.77;;
19664;SDS011;9980;51.020;7.772;2023-04-28T15:24:34;6.67;;;6.07;;
19664;SDS011;9980;51.020;7.772;2023-04-28T15:27:00;7.72;;;6.75;;
19664;SDS011;9980;51.020;7.772;2023-04-28T15:29:28;9.23;;;6.63;;